Time;durP1;ratioP1;P1;durP2;ratioP2;P2;SDS_P1;SDS_P2;PMS_P1;PMS_P2;Temp;Humidity;BMP_temperature;BMP_pressure;BME280_temperature;BME280_humidity;BME280_pressure;Samples;Min_cycle;Max_cycle;Signal;HPM_P1;HPM_P2
2023/08/02 00:00:38;;;;;;;452.60;242.90;;;;;;;13.92;100.00;97949.47;5036739;28;20029;-90
2023/08/02 00:03:05;;;;;;;457.00;245.35;;;;;;;13.97;100.00;97963.00;5062318;28;20028;-90
2023/08/02 00:05:31;;;;;;;450.83;243.55;;;;;;;13.72;100.00;97935.91;5056959;28;20033;-88
2023/08/02 00:07:57;;;;;;;443.95;239.15;;;;;;;13.79;100.00;97956.19;5056738;28;20025;-90
2023/08/02 00:10:22;;;;;;;455.52;246.43;;;;;;;13.59;100.00;97921.00;5073336;28;20183;-89
2023/08/02 00:12:53;;;;;;;455.67;246.05;;;;;;;13.80;100.00;97957.00;5073074;28;20043;-90
2023/08/02 00:15:19;;;;;;;452.08;244.43;;;;;;;13.80;100.00;97960.50;5023521;28;20071;-88
2023/08/02 00:17:45;;;;;;;450.65;244.73;;;;;;;13.56;100.00;97933.16;5056377;28;20056;-90
2023/08/02 00:20:11;;;;;;;438.35;237.93;;;;;;;13.63;100.00;97939.13;5073077;28;20101;-89
2023/08/02 00:22:36;;;;;;;442.70;240.68;;;;;;;13.72;100.00;97952.91;5051970;28;20028;-90
2023/08/02 00:25:02;;;;;;;443.08;240.80;;;;;;;13.63;100.00;97939.13;5036427;28;20118;-89
2023/08/02 00:27:28;;;;;;;445.55;242.13;;;;;;;13.53;100.00;97928.28;5053253;28;20029;-89
2023/08/02 00:29:54;;;;;;;441.48;240.30;;;;;;;13.72;100.00;97952.13;5036695;28;20061;-90
2023/08/02 00:32:19;;;;;;;444.33;241.95;;;;;;;13.62;100.00;97934.78;5039846;28;20036;-90
2023/08/02 00:34:45;;;;;;;448.00;243.93;;;;;;;13.62;100.00;97940.19;5056809;28;20090;-89
2023/08/02 00:37:12;;;;;;;441.88;240.85;;;;;;;13.64;100.00;97946.13;5039801;28;20040;-91
2023/08/02 00:39:37;;;;;;;442.70;241.70;;;;;;;13.67;100.00;97954.78;5056579;28;20475;-90
2023/08/02 00:42:03;;;;;;;444.77;242.90;;;;;;;13.63;100.00;97949.94;5052269;28;20082;-89
2023/08/02 00:44:29;;;;;;;447.27;244.00;;;;;;;13.63;100.00;97947.22;5036249;28;20044;-89
2023/08/02 00:46:54;;;;;;;447.35;244.38;;;;;;;13.58;100.00;97941.81;5036407;28;20032;-89
2023/08/02 00:49:20;;;;;;;447.70;244.57;;;;;;;13.57;100.00;97959.06;5052553;28;20032;-88
2023/08/02 00:51:46;;;;;;;446.30;244.40;;;;;;;13.56;100.00;97943.16;5045937;28;20106;-89
2023/08/02 00:54:11;;;;;;;446.23;243.77;;;;;;;13.39;100.00;97919.06;5019967;28;20029;-89
2023/08/02 00:56:38;;;;;;;446.08;243.65;;;;;;;13.48;100.00;97939.06;5036047;28;20024;-89
2023/08/02 00:59:03;;;;;;;450.02;246.00;;;;;;;13.46;100.00;97943.91;5019560;28;20045;-89
2023/08/02 01:01:29;;;;;;;451.67;246.65;;;;;;;13.37;100.00;97919.31;5025529;28;20040;-89
2023/08/02 01:03:55;;;;;;;447.35;244.77;;;;;;;13.29;100.00;97917.13;5072177;28;20410;-89
2023/08/02 01:06:37;;;;;;;447.00;245.10;;;;;;;13.30;100.00;97915.22;5056018;28;20167;-89
2023/08/02 01:09:13;;;;;;;451.85;248.05;;;;;;;13.32;100.00;97910.38;5056122;28;20040;-89
2023/08/02 01:11:46;;;;;;;448.30;246.23;;;;;;;13.14;100.00;97881.94;5038678;28;20047;-89
2023/08/02 01:14:16;;;;;;;449.85;247.02;;;;;;;13.19;100.00;97898.97;5042831;28;20063;-89
2023/08/02 01:16:43;;;;;;;452.15;247.73;;;;;;;13.23;100.00;97903.81;5075814;28;20060;-89
2023/08/02 01:19:09;;;;;;;438.40;240.52;;;;;;;13.18;100.00;97883.84;5059029;28;20119;-89
2023/08/02 01:21:35;;;;;;;445.77;244.32;;;;;;;13.20;100.00;97881.72;5042420;28;20067;-89
2023/08/02 01:24:01;;;;;;;444.95;243.90;;;;;;;13.31;100.00;97887.16;5059161;28;20064;-89
2023/08/02 01:26:29;;;;;;;440.25;241.63;;;;;;;13.20;100.00;97880.88;5026521;28;20040;-89
2023/08/02 01:28:56;;;;;;;437.90;240.18;;;;;;;13.15;100.00;97865.50;5042627;28;20379;-89
2023/08/02 01:31:22;;;;;;;436.73;239.90;;;;;;;13.32;100.00;97895.00;5059047;28;20043;-89
2023/08/02 01:33:53;;;;;;;437.17;239.70;;;;;;;13.35;100.00;97894.47;5042791;28;20029;-89
2023/08/02 01:36:19;;;;;;;437.33;239.98;;;;;;;13.36;100.00;97884.47;5025886;28;20033;-89
2023/08/02 01:38:45;;;;;;;438.92;240.55;;;;;;;13.38;100.00;97874.25;5042355;28;20062;-89
2023/08/02 01:41:10;;;;;;;437.52;239.68;;;;;;;13.37;100.00;97864.53;5041995;28;20425;-89
2023/08/02 01:43:36;;;;;;;435.38;239.05;;;;;;;13.25;100.00;97845.03;5058764;28;20037;-89
2023/08/02 01:46:03;;;;;;;428.45;235.20;;;;;;;13.19;100.00;97836.09;5075630;28;20051;-89
2023/08/02 01:48:28;;;;;;;435.88;239.27;;;;;;;13.31;100.00;97862.88;5042500;28;20032;-89
2023/08/02 01:50:54;;;;;;;435.77;239.55;;;;;;;13.28;100.00;97858.81;5074704;28;20042;-89
2023/08/02 01:53:20;;;;;;;438.88;241.02;;;;;;;13.24;100.00;97844.22;5075397;28;20028;-89
2023/08/02 01:55:48;;;;;;;435.33;238.75;;;;;;;13.14;100.00;97818.00;5042188;28;20062;-88
2023/08/02 01:58:14;;;;;;;436.40;239.20;;;;;;;13.16;100.00;97834.75;5041927;28;20382;-89
2023/08/02 02:00:39;;;;;;;431.67;237.40;;;;;;;12.92;100.00;97820.88;5054863;28;20037;-88
2023/08/02 02:03:05;;;;;;;439.30;241.85;;;;;;;12.72;100.00;97810.00;5022263;28;20047;-89
2023/08/02 02:05:31;;;;;;;441.17;243.27;;;;;;;12.86;100.00;97846.22;5039222;28;20044;-89
2023/08/02 02:07:56;;;;;;;440.13;242.40;;;;;;;12.84;100.00;97832.19;5055197;28;20122;-88
2023/08/02 02:10:22;;;;;;;443.60;244.57;;;;;;;12.87;100.00;97822.75;5050827;28;20068;-89
2023/08/02 02:12:47;;;;;;;441.15;243.15;;;;;;;12.52;100.00;97789.94;5058389;28;20092;-89
2023/08/02 02:15:13;;;;;;;441.83;244.20;;;;;;;12.21;100.00;97785.44;5058514;28;20040;-89
2023/08/02 02:17:40;;;;;;;438.58;242.50;;;;;;;12.06;100.00;97803.09;5041399;28;20417;-89
2023/08/02 02:20:06;;;;;;;434.88;241.50;;;;;;;11.99;100.00;97804.41;5054607;28;20033;-89
2023/08/02 02:22:32;;;;;;;340.10;194.23;;;;;;;11.95;100.00;97801.41;5022041;28;20071;-89
2023/08/02 02:24:57;;;;;;;380.77;215.50;;;;;;;11.87;100.00;97799.19;5038211;28;20037;-90
2023/08/02 02:27:23;;;;;;;397.73;225.30;;;;;;;11.85;100.00;97790.50;5054744;28;20036;-89
2023/08/02 02:29:49;;;;;;;400.80;227.02;;;;;;;11.66;100.00;97771.25;5037883;28;20032;-89
2023/08/02 02:32:14;;;;;;;341.45;196.60;;;;;;;11.54;100.00;97790.25;5038164;28;20526;-90
2023/08/02 02:34:40;;;;;;;341.25;197.88;;;;;;;11.38;100.00;97783.91;5021543;28;20028;-89
2023/08/02 02:37:06;;;;;;;343.65;199.07;;;;;;;11.38;100.00;97777.72;5037990;28;20095;-89
2023/08/02 02:39:32;;;;;;;342.90;198.88;;;;;;;11.45;100.00;97786.38;5046914;28;20029;-89
2023/08/02 02:41:58;;;;;;;342.52;198.73;;;;;;;11.29;100.00;97763.09;5074704;28;20035;-89
2023/08/02 02:44:39;;;;;;;344.17;199.23;;;;;;;11.26;100.00;97777.88;5074602;28;20032;-90
2023/08/02 02:47:04;;;;;;;355.33;205.23;;;;;;;11.21;100.00;97775.94;5026368;28;20197;-89
2023/08/02 02:49:30;;;;;;;379.77;219.77;;;;;;;11.20;100.00;97771.63;5041074;28;20474;-89
2023/08/02 02:51:55;;;;;;;399.02;229.73;;;;;;;11.14;100.00;97755.69;5073332;28;20028;-89
2023/08/02 02:54:21;;;;;;;349.17;202.88;;;;;;;11.10;100.00;97730.38;5040593;28;20494;-90
2023/08/02 02:56:47;;;;;;;392.35;226.05;;;;;;;11.38;100.00;97770.47;5057169;28;20070;-90
2023/08/02 02:59:12;;;;;;;404.77;233.18;;;;;;;11.25;100.00;97741.28;5057624;28;20090;-89
2023/08/02 03:01:38;;;;;;;408.85;235.27;;;;;;;11.40;100.00;97762.13;5040919;28;20085;-89
2023/08/02 03:04:03;;;;;;;407.38;234.90;;;;;;;11.44;100.00;97764.06;5073699;28;20119;-89
2023/08/02 03:06:29;;;;;;;406.42;234.05;;;;;;;11.16;100.00;97713.22;5056978;28;20032;-90
2023/08/02 03:08:55;;;;;;;407.75;234.98;;;;;;;11.23;100.00;97741.53;5057739;28;20037;-90
2023/08/02 03:11:20;;;;;;;409.20;236.02;;;;;;;11.14;100.00;97751.13;5074027;28;20478;-89
2023/08/02 03:13:46;;;;;;;409.05;235.77;;;;;;;11.12;100.00;97742.50;5053599;28;20036;-90
2023/08/02 03:16:11;;;;;;;410.33;237.10;;;;;;;11.32;100.00;97757.22;5037336;28;20040;-90
2023/08/02 03:18:37;;;;;;;357.10;207.40;;;;;;;11.33;100.00;97740.81;5020869;28;20025;-89
2023/08/02 03:21:03;;;;;;;391.35;226.18;;;;;;;11.31;100.00;97710.69;5056667;28;20050;-90
2023/08/02 03:23:28;;;;;;;358.35;208.25;;;;;;;11.58;100.00;97739.44;5073834;28;20032;-90
2023/08/02 03:25:54;;;;;;;357.02;207.13;;;;;;;11.72;100.00;97755.94;5040510;28;20379;-89
2023/08/02 03:28:19;;;;;;;366.00;211.85;;;;;;;11.73;100.00;97730.69;5073688;28;20032;-89
2023/08/02 03:30:45;;;;;;;370.40;213.27;;;;;;;11.94;100.00;97747.81;5056546;28;20031;-89
2023/08/02 03:33:10;;;;;;;381.17;219.35;;;;;;;11.87;100.00;97724.59;5073635;28;20033;-89
2023/08/02 03:35:36;;;;;;;420.17;239.18;;;;;;;11.85;100.00;97705.19;5073236;28;20039;-89
2023/08/02 03:38:02;;;;;;;420.92;239.07;;;;;;;12.18;100.00;97745.56;5073508;28;20021;-89
2023/08/02 03:40:27;;;;;;;426.45;241.35;;;;;;;12.18;100.00;97729.41;5072925;28;20036;-89
2023/08/02 03:42:53;;;;;;;425.08;239.38;;;;;;;12.24;100.00;97739.94;5073389;28;20127;-90
2023/08/02 03:45:18;;;;;;;417.25;235.43;;;;;;;12.21;100.00;97732.38;5056689;28;20086;-89
2023/08/02 03:47:44;;;;;;;383.90;217.10;;;;;;;12.28;100.00;97745.63;5056271;28;20062;-89
2023/08/02 03:50:10;;;;;;;434.15;243.57;;;;;;;12.28;100.00;97735.66;5055243;28;20059;-90
2023/08/02 03:52:35;;;;;;;442.75;247.18;;;;;;;12.24;100.00;97729.16;5074515;28;20082;-88
2023/08/02 03:55:01;;;;;;;446.52;249.30;;;;;;;12.33;100.00;97732.16;5056844;28;20033;-89
2023/08/02 03:57:26;;;;;;;446.10;248.90;;;;;;;12.35;100.00;97729.22;5052212;28;20048;-89
2023/08/02 03:59:52;;;;;;;444.70;247.30;;;;;;;12.44;100.00;97738.44;5020161;28;20036;-89
2023/08/02 04:02:18;;;;;;;443.98;246.77;;;;;;;12.52;100.00;97733.34;5053273;28;20074;-88
2023/08/02 04:04:43;;;;;;;434.83;242.05;;;;;;;12.52;100.00;97732.56;5036446;28;20441;-88
2023/08/02 04:07:09;;;;;;;443.73;246.73;;;;;;;12.42;100.00;97717.13;5055651;28;20058;-91
2023/08/02 04:09:35;;;;;;;444.05;246.25;;;;;;;12.37;100.00;97705.53;5039912;28;20032;-89
2023/08/02 04:12:01;;;;;;;449.02;248.73;;;;;;;12.44;100.00;97709.59;5039534;28;20368;-90
2023/08/02 04:14:26;;;;;;;446.58;247.48;;;;;;;12.49;100.00;97708.78;5056344;28;20028;-89
2023/08/02 04:16:52;;;;;;;443.73;245.50;;;;;;;12.62;100.00;97724.50;5055892;28;20082;-89
2023/08/02 04:19:18;;;;;;;447.67;247.55;;;;;;;12.64;100.00;97735.81;5040194;28;20078;-90
2023/08/02 04:21:43;;;;;;;447.48;247.00;;;;;;;12.69;100.00;97741.25;5056070;28;20431;-89
2023/08/02 04:24:09;;;;;;;450.65;249.02;;;;;;;12.70;100.00;97748.28;5072532;28;20475;-89
2023/08/02 04:26:34;;;;;;;442.83;244.43;;;;;;;12.74;100.00;97745.84;5055299;28;20025;-89
2023/08/02 04:29:00;;;;;;;446.52;246.45;;;;;;;12.70;100.00;97745.56;5035898;28;20467;-90
2023/08/02 04:31:25;;;;;;;445.13;245.73;;;;;;;12.76;100.00;97752.59;5040912;28;20052;-89
2023/08/02 04:33:51;;;;;;;439.27;242.48;;;;;;;12.64;100.00;97740.41;5035200;28;20414;-89
2023/08/02 04:36:16;;;;;;;445.48;245.75;;;;;;;12.75;100.00;97772.56;5069271;28;20040;-89
2023/08/02 04:38:42;;;;;;;444.70;245.25;;;;;;;12.76;100.00;97768.78;5052410;28;20029;-89
2023/08/02 04:41:14;;;;;;;447.27;246.77;;;;;;;12.55;100.00;97737.41;5052778;28;20028;-89
2023/08/02 04:43:40;;;;;;;439.48;242.75;;;;;;;12.74;100.00;97772.81;5036022;28;20037;-89
2023/08/02 04:46:05;;;;;;;447.88;246.63;;;;;;;12.62;100.00;97754.16;5052955;28;20032;-89
2023/08/02 04:48:31;;;;;;;448.00;246.63;;;;;;;12.77;100.00;97786.56;5056290;28;20116;-89
2023/08/02 04:50:56;;;;;;;441.38;243.25;;;;;;;12.81;100.00;97783.34;5056120;28;20395;-89
2023/08/02 04:53:22;;;;;;;442.80;243.82;;;;;;;12.82;100.00;97777.69;5031661;28;20077;-89
2023/08/02 04:55:47;;;;;;;431.83;238.25;;;;;;;12.88;100.00;97790.13;5059476;28;20418;-90
2023/08/02 04:58:13;;;;;;;441.67;242.82;;;;;;;12.89;100.00;97796.34;5043165;28;20115;-89
2023/08/02 05:00:39;;;;;;;437.13;240.68;;;;;;;12.90;100.00;97800.66;5076560;28;20486;-90
2023/08/02 05:03:04;;;;;;;436.52;240.18;;;;;;;12.69;100.00;97768.19;5059192;28;20036;-90
2023/08/02 05:05:31;;;;;;;428.70;236.30;;;;;;;12.64;100.00;97762.78;5076274;28;20060;-89
2023/08/02 05:07:57;;;;;;;429.58;237.05;;;;;;;12.82;100.00;97799.25;5059444;28;20036;-89
2023/08/02 05:10:22;;;;;;;393.33;218.25;;;;;;;12.68;100.00;97779.25;5075843;28;20153;-89
2023/08/02 05:12:48;;;;;;;431.80;237.50;;;;;;;12.93;100.00;97811.72;5042746;28;20077;-89
2023/08/02 05:15:13;;;;;;;427.70;236.35;;;;;;;12.77;100.00;97781.16;5059244;28;20050;-89
2023/08/02 05:17:39;;;;;;;427.00;235.15;;;;;;;12.72;100.00;97773.06;5075857;28;20047;-89
2023/08/02 05:20:06;;;;;;;443.42;243.18;;;;;;;13.05;100.00;97816.91;5058984;28;20089;-88
2023/08/02 05:22:31;;;;;;;444.38;243.50;;;;;;;12.85;100.00;97787.94;5075873;28;20110;-89
2023/08/02 05:24:58;;;;;;;442.90;242.90;;;;;;;12.95;100.00;97793.38;5059593;28;20467;-90
2023/08/02 05:27:23;;;;;;;436.73;239.35;;;;;;;12.93;100.00;97783.94;5059765;28;20470;-89
2023/08/02 05:29:51;;;;;;;443.95;242.55;;;;;;;13.07;100.00;97806.66;5059605;28;20033;-89
2023/08/02 05:32:17;;;;;;;445.95;243.60;;;;;;;13.14;100.00;97819.88;5058342;28;20459;-89
2023/08/02 05:34:42;;;;;;;443.90;242.45;;;;;;;13.15;100.00;97808.00;5077115;28;20028;-89
2023/08/02 05:37:08;;;;;;;443.60;242.27;;;;;;;13.22;100.00;97816.69;5075295;28;20082;-89
2023/08/02 05:39:34;;;;;;;443.58;241.73;;;;;;;13.08;100.00;97797.47;5058532;28;20036;-89
2023/08/02 05:41:59;;;;;;;434.17;237.80;;;;;;;13.27;100.00;97832.13;5076434;28;20059;-89
2023/08/02 05:44:25;;;;;;;442.45;241.13;;;;;;;13.06;100.00;97804.22;5075484;28;20090;-89
2023/08/02 05:46:50;;;;;;;436.25;238.68;;;;;;;13.33;100.00;97828.34;5041846;28;20032;-89
2023/08/02 05:49:16;;;;;;;435.02;237.73;;;;;;;13.40;100.00;97832.41;5055008;28;20041;-89
2023/08/02 05:51:41;;;;;;;439.13;240.52;;;;;;;13.49;100.00;97840.00;5038927;28;20115;-89
2023/08/02 05:54:07;;;;;;;437.88;239.05;;;;;;;13.49;100.00;97848.09;5022249;28;20033;-89
2023/08/02 05:56:33;;;;;;;437.77;239.35;;;;;;;13.29;100.00;97824.56;5025123;28;20036;-89
2023/08/02 05:58:58;;;;;;;441.90;241.95;;;;;;;13.28;100.00;97850.72;5041621;28;20032;-89
2023/08/02 06:01:24;;;;;;;433.73;238.77;;;;;;;13.07;100.00;97839.03;5058722;28;20081;-89
2023/08/02 06:03:49;;;;;;;435.70;239.35;;;;;;;12.98;100.00;97837.91;5058368;28;20033;-89
2023/08/02 06:06:15;;;;;;;433.33;239.00;;;;;;;13.07;100.00;97846.28;5041623;28;20394;-89
2023/08/02 06:08:41;;;;;;;439.40;241.38;;;;;;;13.37;100.00;97854.53;5058676;28;20036;-89
2023/08/02 06:11:07;;;;;;;438.55;240.60;;;;;;;13.68;100.00;97849.25;5058560;28;20029;-89
2023/08/02 06:13:32;;;;;;;440.15;240.27;;;;;;;13.67;100.00;97836.78;5058059;28;20581;-89
2023/08/02 06:15:58;;;;;;;442.52;241.20;;;;;;;13.63;100.00;97860.03;5075080;28;20039;-89
2023/08/02 06:18:24;;;;;;;440.20;240.05;;;;;;;13.19;100.00;97826.09;5074531;28;20054;-88
2023/08/02 06:20:49;;;;;;;442.98;241.68;;;;;;;13.34;100.00;97876.66;5041352;28;20028;-89
2023/08/02 06:23:15;;;;;;;438.25;239.75;;;;;;;13.19;100.00;97863.88;5057619;28;20029;-88
2023/08/02 06:25:40;;;;;;;438.10;239.70;;;;;;;13.10;100.00;97859.28;5037840;28;20028;-88
2023/08/02 06:28:06;;;;;;;442.88;242.23;;;;;;;13.19;100.00;97869.28;5054482;28;20420;-88
2023/08/02 06:30:32;;;;;;;442.35;241.95;;;;;;;13.13;100.00;97847.94;5055506;28;20375;-88
2023/08/02 06:32:57;;;;;;;444.95;243.07;;;;;;;13.43;100.00;97882.34;5037530;28;20395;-88
2023/08/02 06:35:23;;;;;;;439.42;240.15;;;;;;;13.60;100.00;97887.53;5043892;28;20032;-89
2023/08/02 06:37:48;;;;;;;440.35;239.77;;;;;;;13.54;100.00;97859.72;5041355;28;20028;-88
2023/08/02 06:40:14;;;;;;;445.48;241.77;;;;;;;13.92;100.00;97887.34;5057860;28;20036;-89
2023/08/02 06:42:39;;;;;;;443.05;239.25;;;;;;;14.23;100.00;97900.88;5057751;28;20508;-88
2023/08/02 06:45:06;;;;;;;449.80;241.80;;;;;;;14.22;100.00;97888.47;5073776;28;20036;-89
2023/08/02 06:47:31;;;;;;;447.45;239.40;;;;;;;14.43;100.00;97919.81;5040940;28;20040;-88
2023/08/02 06:49:57;;;;;;;452.75;241.70;;;;;;;14.27;100.00;97893.88;5074920;28;20050;-88
2023/08/02 06:52:23;;;;;;;453.30;241.05;;;;;;;14.41;100.00;97908.47;5057681;28;20064;-88
2023/08/02 06:54:52;;;;;;;453.27;240.15;;;;;;;14.40;100.00;97882.50;5073804;28;20374;-88
2023/08/02 06:57:22;;;;;;;455.83;240.60;;;;;;;14.69;100.00;97899.00;5037062;28;20047;-88
2023/08/02 06:59:49;;;;;;;457.95;241.10;;;;;;;14.76;100.00;97889.81;5037780;28;20460;-88
2023/08/02 07:02:15;;;;;;;462.65;241.98;;;;;;;15.04;100.00;97901.94;5054608;28;20471;-89
2023/08/02 07:04:40;;;;;;;461.33;240.27;;;;;;;15.42;100.00;97911.25;5020814;28;20032;-88
2023/08/02 07:07:06;;;;;;;462.27;239.18;;;;;;;15.51;100.00;97906.09;5056666;28;20052;-88
2023/08/02 07:09:32;;;;;;;459.58;237.23;;;;;;;15.55;100.00;97928.81;5056038;28;20035;-89
2023/08/02 07:11:59;;;;;;;468.67;241.02;;;;;;;15.70;100.00;97917.94;5057143;28;20437;-88
2023/08/02 07:14:24;;;;;;;395.55;206.80;;;;;;;16.13;100.00;97945.34;5022327;28;20032;-88
2023/08/02 07:16:50;;;;;;;463.58;237.48;;;;;;;16.77;100.00;97964.41;5052960;28;20033;-87
2023/08/02 07:19:16;;;;;;;481.58;242.40;;;;;;;18.80;100.00;97948.59;5020397;28;20045;-87
2023/08/02 07:21:41;;;;;;;491.02;243.70;;;;;;;20.66;100.00;97964.44;5055756;28;20381;-87
2023/08/02 07:24:07;;;;;;;494.67;244.75;;;;;;;20.85;100.00;97966.97;5072729;28;20025;-87
2023/08/02 07:26:32;;;;;;;488.77;239.13;;;;;;;19.72;100.00;97964.06;5072738;28;20486;-88
2023/08/02 07:28:58;;;;;;;489.75;240.82;;;;;;;18.39;100.00;97966.38;5040023;28;20035;-88
2023/08/02 07:31:23;;;;;;;492.15;242.40;;;;;;;17.57;100.00;97988.31;5072547;28;20098;-92
2023/08/02 07:33:49;;;;;;;490.17;242.32;;;;;;;17.05;100.00;97984.53;5036264;28;20041;-87
2023/08/02 07:36:17;;;;;;;486.50;241.20;;;;;;;16.51;100.00;97983.56;5036519;28;20437;-87
2023/08/02 07:38:43;;;;;;;486.25;242.10;;;;;;;15.87;100.00;97954.69;5020228;28;20033;-87
2023/08/02 07:41:09;;;;;;;485.17;242.55;;;;;;;16.00;100.00;97990.13;5053147;28;20029;-88
2023/08/02 07:43:35;;;;;;;484.83;242.85;;;;;;;16.24;100.00;97990.25;5020320;28;20037;-86
2023/08/02 07:46:01;;;;;;;480.08;241.65;;;;;;;16.44;100.00;97996.66;5036464;28;20033;-92
2023/08/02 07:48:26;;;;;;;477.88;240.60;;;;;;;16.52;100.00;97979.78;5020381;28;20486;-91
2023/08/02 07:50:52;;;;;;;478.67;240.63;;;;;;;17.13;100.00;97990.16;5037046;28;20055;-87
2023/08/02 07:53:18;;;;;;;480.85;240.32;;;;;;;17.73;100.00;98013.41;5034208;28;20394;-86
2023/08/02 07:55:43;;;;;;;479.80;240.05;;;;;;;17.28;100.00;97980.22;5039516;28;20032;-88
2023/08/02 07:58:09;;;;;;;478.88;239.48;;;;;;;17.02;100.00;98012.25;5056050;28;20028;-86
2023/08/02 08:00:35;;;;;;;475.30;238.23;;;;;;;16.80;100.00;98013.50;5072762;28;20031;-88
2023/08/02 08:03:03;;;;;;;477.42;239.90;;;;;;;16.65;100.00;98024.47;5056235;28;20471;-88
2023/08/02 08:05:30;;;;;;;478.38;240.82;;;;;;;16.85;100.00;98037.09;5052429;28;20037;-89
2023/08/02 08:07:56;;;;;;;475.13;238.75;;;;;;;16.83;100.00;98025.69;5052391;28;20036;-88
2023/08/02 08:10:21;;;;;;;477.35;239.80;;;;;;;16.77;100.00;98062.09;5019793;28;20044;-88
2023/08/02 08:12:47;;;;;;;475.98;239.73;;;;;;;16.50;100.00;98063.34;5036679;28;20041;-88
2023/08/02 08:15:22;;;;;;;476.35;240.45;;;;;;;16.29;100.00;98054.50;5035506;28;20460;-87
2023/08/02 08:17:48;;;;;;;475.15;240.10;;;;;;;16.35;100.00;98071.56;5037533;28;20060;-88
2023/08/02 08:20:14;;;;;;;473.63;239.10;;;;;;;16.63;100.00;98070.84;5035935;28;20491;-88
2023/08/02 08:22:39;;;;;;;476.25;240.35;;;;;;;17.00;100.00;98077.69;5053491;28;20040;-88
2023/08/02 08:25:05;;;;;;;476.63;239.73;;;;;;;17.78;100.00;98089.47;5060341;28;20076;-87
2023/08/02 08:27:31;;;;;;;475.05;237.32;;;;;;;18.30;100.00;98095.97;5060255;28;20028;-87
2023/08/02 08:29:57;;;;;;;473.48;235.43;;;;;;;18.74;100.00;98075.78;5059928;28;20040;-88
2023/08/02 08:32:26;;;;;;;468.73;232.40;;;;;;;19.03;100.00;98111.03;5059558;28;20067;-87
2023/08/02 08:34:52;;;;;;;474.30;234.43;;;;;;;18.72;100.00;98099.75;5056936;28;20048;-87
2023/08/02 08:37:18;;;;;;;479.42;236.27;;;;;;;18.58;100.00;98093.44;5039912;28;20041;-87
2023/08/02 08:39:43;;;;;;;479.83;235.32;;;;;;;18.66;100.00;98092.78;5047048;28;20036;-88
2023/08/02 08:42:10;;;;;;;479.85;235.00;;;;;;;18.84;100.00;98102.88;5059815;28;20032;-87
2023/08/02 08:44:37;;;;;;;481.15;235.20;;;;;;;18.79;100.00;98118.50;5076606;28;20421;-87
2023/08/02 08:47:05;;;;;;;478.30;234.10;;;;;;;18.26;100.00;98118.59;5039877;28;20033;-88
2023/08/02 08:49:31;;;;;;;481.42;235.60;;;;;;;18.11;100.00;98128.56;5039821;28;20029;-87
2023/08/02 08:52:02;;;;;;;471.13;231.25;;;;;;;18.30;100.00;98146.84;5056336;28;20378;-87
2023/08/02 08:54:28;;;;;;;473.48;232.85;;;;;;;18.12;100.00;98159.28;5056449;28;20025;-87
2023/08/02 08:56:54;;;;;;;475.60;234.15;;;;;;;17.67;100.00;98142.28;5055818;28;20033;-89
2023/08/02 08:59:20;;;;;;;479.25;236.05;;;;;;;17.69;100.00;98132.75;5059552;28;20040;-88
2023/08/02 09:01:46;;;;;;;478.75;236.05;;;;;;;17.68;100.00;98131.16;5059312;28;20036;-88
2023/08/02 09:04:12;;;;;;;478.98;235.77;;;;;;;18.08;100.00;98150.91;5043099;28;20463;-88
2023/08/02 09:06:38;;;;;;;476.98;234.40;;;;;;;18.52;100.00;98141.66;5059171;28;20039;-87
2023/08/02 09:09:04;;;;;;;482.67;236.50;;;;;;;18.59;100.00;98171.25;5042799;28;20036;-87
2023/08/02 09:11:30;;;;;;;480.75;236.15;;;;;;;18.31;100.00;98173.75;5059552;28;20060;-88
2023/08/02 09:14:15;;;;;;;478.98;234.98;;;;;;;18.04;100.00;98173.50;5042482;28;20423;-89
2023/08/02 09:17:23;;;;;;;478.25;235.27;;;;;;;17.46;100.00;98172.34;5058969;28;20040;-87
2023/08/02 09:19:48;;;;;;;477.08;235.23;;;;;;;17.44;100.00;98177.28;5001916;28;20044;-89
2023/08/02 09:22:15;;;;;;;478.00;235.43;;;;;;;17.91;100.00;98192.09;5066368;28;20052;-90
2023/08/02 09:24:43;;;;;;;475.33;234.32;;;;;;;17.63;100.00;98190.97;5038336;28;20028;-90
2023/08/02 09:27:17;;;;;;;481.58;237.18;;;;;;;17.23;100.00;98208.41;5052607;28;20032;-88
2023/08/02 09:29:51;;;;;;;481.42;237.73;;;;;;;17.04;100.00;98230.78;5036392;28;20051;-89
2023/08/02 09:32:19;;;;;;;477.02;236.40;;;;;;;17.02;100.00;98246.53;5039790;28;20470;-89
2023/08/02 09:34:58;;;;;;;476.65;235.90;;;;;;;16.76;100.00;98234.13;5046080;28;20032;-89
2023/08/02 09:37:35;;;;;;;473.15;235.52;;;;;;;16.74;100.00;98255.31;5038317;28;20036;-87
2023/08/02 09:40:04;;;;;;;473.00;235.88;;;;;;;16.95;100.00;98243.28;5042753;28;20405;-88
2023/08/02 09:42:29;;;;;;;472.00;235.77;;;;;;;17.32;100.00;98253.69;5039998;28;20098;-88
2023/08/02 09:44:57;;;;;;;469.23;233.85;;;;;;;17.40;100.00;98265.06;5039715;28;20044;-88
2023/08/02 09:47:24;;;;;;;478.02;237.70;;;;;;;17.13;100.00;98269.81;5056670;28;20059;-88
2023/08/02 09:50:09;;;;;;;476.73;238.43;;;;;;;16.89;100.00;98288.66;5074231;28;20037;-89
2023/08/02 09:52:37;;;;;;;478.58;239.35;;;;;;;16.60;100.00;98293.88;5041279;28;20052;-88
2023/08/02 09:55:03;;;;;;;477.38;239.05;;;;;;;16.40;100.00;98296.63;5075636;28;20028;-87
2023/08/02 09:57:30;;;;;;;472.65;237.48;;;;;;;16.35;100.00;98302.06;5074762;28;20021;-87
2023/08/02 10:00:04;;;;;;;460.80;232.50;;;;;;;16.30;100.00;98315.63;5040687;28;20029;-88
2023/08/02 10:02:30;;;;;;;454.95;230.70;;;;;;;16.32;100.00;98324.28;5040795;28;20047;-89
2023/08/02 10:04:58;;;;;;;453.95;230.10;;;;;;;16.41;100.00;98312.63;5037296;28;20033;-86
2023/08/02 10:07:40;;;;;;;456.80;231.88;;;;;;;16.80;100.00;98335.63;5054881;28;20471;-88
2023/08/02 10:10:11;;;;;;;456.70;231.88;;;;;;;17.03;100.00;98323.34;5021776;28;20476;-88
2023/08/02 10:12:38;;;;;;;456.20;230.88;;;;;;;17.35;100.00;98312.06;5026730;28;20129;-87
2023/08/02 10:15:04;;;;;;;456.63;229.82;;;;;;;17.76;100.00;98347.16;5039673;28;20074;-86
2023/08/02 10:17:31;;;;;;;453.60;228.20;;;;;;;17.70;100.00;98351.81;5056251;28;20082;-88
2023/08/02 10:20:00;;;;;;;450.73;226.70;;;;;;;17.41;100.00;98359.84;5056655;28;20044;-87
2023/08/02 10:22:26;;;;;;;460.58;230.73;;;;;;;16.97;100.00;98343.47;5074996;28;20037;-87
2023/08/02 10:24:52;;;;;;;453.55;228.45;;;;;;;16.67;100.00;98364.94;5054194;28;20044;-87
2023/08/02 10:27:19;;;;;;;452.65;228.70;;;;;;;16.81;100.00;98389.63;5038097;28;20104;-88
2023/08/02 10:29:44;;;;;;;454.92;229.65;;;;;;;17.11;100.00;98386.03;5046185;28;20044;-88
2023/08/02 10:32:11;;;;;;;454.95;229.02;;;;;;;17.68;100.00;98397.47;5040989;28;20040;-86
2023/08/02 10:34:37;;;;;;;458.63;229.85;;;;;;;18.39;100.00;98396.22;5036243;28;20029;-87
2023/08/02 10:37:03;;;;;;;455.10;227.38;;;;;;;18.54;100.00;98405.34;5054398;28;20063;-86
2023/08/02 10:39:47;;;;;;;457.75;227.55;;;;;;;18.32;100.00;98417.47;5038915;28;20040;-89
2023/08/02 10:42:18;;;;;;;455.52;226.55;;;;;;;17.50;100.00;98406.25;5072706;28;20128;-87
2023/08/02 10:44:56;;;;;;;454.63;226.90;;;;;;;17.04;100.00;98426.25;5056716;28;20059;-86
2023/08/02 10:47:25;;;;;;;456.77;228.75;;;;;;;16.60;100.00;98439.56;5054357;28;20104;-87
2023/08/02 10:49:52;;;;;;;453.67;228.32;;;;;;;16.12;100.00;98428.97;5071872;28;20428;-89
2023/08/02 10:52:29;;;;;;;450.23;227.82;;;;;;;15.83;100.00;98440.28;5057050;28;20131;-88